createdAt,value
2022-09-13T00:00:07.320Z,4.18
2022-09-13T00:02:36.151Z,4.55
2022-09-13T00:05:04.683Z,5.00
2022-09-13T00:07:34.331Z,4.80
2022-09-13T00:10:02.674Z,4.03
2022-09-13T00:12:30.963Z,4.10
2022-09-13T00:14:59.329Z,3.58
2022-09-13T00:17:27.773Z,3.50
2022-09-13T00:19:56.043Z,3.92
2022-09-13T00:22:24.641Z,4.20
2022-09-13T00:24:54.529Z,4.05
2022-09-13T00:27:24.305Z,4.75
2022-09-13T00:29:52.634Z,3.97
2022-09-13T00:32:21.038Z,4.07
2022-09-13T00:34:49.289Z,3.95
2022-09-13T00:37:17.577Z,4.13
2022-09-13T00:39:49.564Z,4.15
2022-09-13T00:42:19.490Z,4.40
2022-09-13T00:44:56.054Z,4.05
2022-09-13T00:47:29.289Z,3.92
2022-09-13T00:50:03.746Z,3.30
2022-09-13T00:55:05.754Z,4.00
2022-09-13T00:57:36.682Z,4.15
2022-09-13T01:00:11.593Z,5.68
2022-09-13T01:02:42.694Z,3.92
2022-09-13T01:05:12.056Z,4.03
2022-09-13T01:07:41.760Z,4.68
2022-09-13T01:10:11.067Z,4.80
2022-09-13T01:12:49.518Z,3.38
2022-09-13T01:15:17.890Z,3.75
2022-09-13T01:17:46.445Z,3.38
2022-09-13T01:20:15.557Z,3.40
2022-09-13T01:23:15.712Z,4.57
2022-09-13T01:26:05.142Z,3.72
2022-09-13T01:28:57.096Z,4.68
2022-09-13T01:31:34.091Z,3.83
2022-09-13T01:34:15.218Z,3.85
2022-09-13T01:37:11.410Z,4.32
2022-09-13T01:40:04.188Z,3.80
2022-09-13T01:42:48.034Z,3.55
2022-09-13T01:45:26.332Z,3.85
2022-09-13T01:48:01.173Z,4.15
2022-09-13T01:50:39.176Z,5.30
2022-09-13T01:53:16.461Z,4.35
2022-09-13T01:55:51.213Z,4.53
2022-09-13T01:58:25.355Z,3.75
2022-09-13T02:01:04.893Z,3.72
2022-09-13T02:03:41.025Z,3.42
2022-09-13T02:06:12.677Z,4.03
2022-09-13T02:08:44.314Z,4.53
2022-09-13T02:11:14.678Z,5.03
2022-09-13T02:13:49.632Z,3.40
2022-09-13T02:16:25.700Z,5.15
2022-09-13T02:19:00.076Z,4.75
2022-09-13T02:21:30.880Z,3.63
2022-09-13T02:24:03.383Z,4.18
2022-09-13T02:26:33.675Z,3.80
2022-09-13T02:29:07.770Z,3.63
2022-09-13T02:31:41.547Z,3.78
2022-09-13T02:34:17.170Z,4.10
2022-09-13T02:36:48.568Z,4.05
2022-09-13T02:39:19.256Z,6.25
2022-09-13T02:41:54.009Z,4.30
2022-09-13T02:44:30.033Z,3.95
2022-09-13T02:47:13.112Z,3.75
2022-09-13T02:49:56.737Z,4.13
2022-09-13T02:52:38.086Z,3.60
2022-09-13T02:55:16.512Z,3.75
2022-09-13T02:57:55.351Z,4.45
2022-09-13T03:00:23.715Z,4.07
2022-09-13T03:02:54.552Z,3.92
2022-09-13T03:05:24.430Z,3.53
2022-09-13T03:07:53.777Z,3.70
2022-09-13T03:10:23.540Z,3.80
2022-09-13T03:13:10.206Z,3.75
2022-09-13T03:15:53.765Z,4.10
2022-09-13T03:18:37.956Z,3.90
2022-09-13T03:21:19.567Z,3.97
2022-09-13T03:23:58.884Z,3.70
2022-09-13T03:26:46.368Z,3.85
2022-09-13T03:29:27.634Z,4.32
2022-09-13T03:32:07.136Z,5.03
2022-09-13T03:34:43.810Z,3.92
2022-09-13T03:37:23.922Z,3.50
2022-09-13T03:39:58.229Z,3.90
2022-09-13T03:42:34.172Z,3.88
2022-09-13T03:45:04.575Z,4.10
2022-09-13T03:47:36.445Z,3.70
2022-09-13T03:50:08.302Z,5.93
2022-09-13T03:52:39.226Z,3.75
2022-09-13T03:55:09.442Z,3.72
2022-09-13T03:57:38.150Z,4.05
2022-09-13T04:00:08.028Z,3.92
2022-09-13T04:02:39.866Z,3.83
2022-09-13T04:05:08.939Z,4.63
2022-09-13T04:07:38.570Z,4.22
2022-09-13T04:10:10.701Z,4.40
2022-09-13T04:12:42.050Z,4.15
2022-09-13T04:15:11.210Z,4.63
2022-09-13T04:17:39.458Z,4.03
2022-09-13T04:20:08.420Z,4.40
2022-09-13T04:22:38.177Z,4.63
2022-09-13T04:25:07.449Z,4.28
2022-09-13T04:27:36.627Z,3.90
2022-09-13T04:30:05.497Z,4.20
2022-09-13T04:32:34.317Z,3.40
2022-09-13T04:35:02.561Z,3.30
2022-09-13T04:37:30.823Z,4.40
2022-09-13T04:40:00.499Z,3.70
2022-09-13T04:42:28.805Z,4.60
2022-09-13T04:44:57.064Z,3.60
2022-09-13T04:47:25.339Z,3.90
2022-09-13T04:49:53.569Z,3.70
2022-09-13T04:52:21.820Z,4.15
2022-09-13T04:54:50.152Z,4.40
2022-09-13T04:57:19.836Z,3.92
2022-09-13T04:59:48.090Z,4.97
2022-09-13T05:02:16.399Z,4.43
2022-09-13T05:04:44.766Z,4.15
2022-09-13T05:07:13.294Z,3.83
2022-09-13T05:09:41.533Z,4.10
2022-09-13T05:12:09.801Z,4.03
2022-09-13T05:14:39.429Z,4.63
2022-09-13T05:17:07.714Z,4.18
2022-09-13T05:19:36.152Z,4.97
2022-09-13T05:22:04.508Z,3.83
2022-09-13T05:24:33.104Z,4.15
2022-09-13T05:27:01.355Z,3.88
2022-09-13T05:29:29.649Z,3.75
2022-09-13T05:31:59.346Z,4.75
2022-09-13T05:34:27.833Z,3.97
2022-09-13T05:36:56.131Z,3.95
2022-09-13T05:39:48.469Z,5.53
2022-09-13T05:42:12.988Z,3.70
2022-09-13T05:44:41.215Z,3.78
2022-09-13T05:47:10.830Z,4.10
2022-09-13T05:49:56.718Z,4.43
2022-09-13T05:52:27.532Z,4.22
2022-09-13T05:54:55.766Z,3.90
2022-09-13T05:57:24.005Z,3.88
2022-09-13T05:59:52.310Z,3.65
2022-09-13T06:02:22.282Z,4.00
2022-09-13T06:04:50.794Z,3.90
2022-09-13T06:07:19.033Z,5.10
2022-09-13T06:09:47.357Z,3.88
2022-09-13T06:12:15.622Z,3.90
2022-09-13T06:14:43.902Z,4.13
2022-09-13T06:17:12.166Z,3.72
2022-09-13T06:19:41.960Z,3.70
2022-09-13T06:22:10.223Z,4.65
2022-09-13T06:24:38.515Z,4.63
2022-09-13T06:27:06.902Z,3.90
2022-09-13T06:29:35.153Z,5.60
2022-09-13T06:32:03.971Z,4.00
2022-09-13T06:34:32.382Z,3.55
2022-09-13T06:37:02.065Z,4.10
2022-09-13T06:39:31.995Z,3.60
2022-09-13T06:42:00.355Z,3.88
2022-09-13T06:44:40.802Z,4.00
2022-09-13T06:47:09.727Z,3.95
2022-09-13T06:49:38.199Z,4.40
2022-09-13T06:52:07.901Z,4.05
2022-09-13T06:54:36.217Z,4.43
2022-09-13T06:57:04.678Z,3.50
2022-09-13T06:59:34.900Z,4.07
2022-09-13T07:02:03.292Z,3.65
2022-09-13T07:04:31.954Z,3.60
2022-09-13T07:07:00.585Z,4.35
2022-09-13T07:09:30.273Z,5.30
2022-09-13T07:11:58.716Z,4.80
2022-09-13T07:14:29.627Z,3.90
2022-09-13T07:16:58.478Z,4.13
2022-09-13T07:19:28.902Z,3.25
2022-09-13T07:21:58.511Z,4.05
2022-09-13T07:24:27.343Z,4.15
2022-09-13T07:26:57.061Z,3.67
2022-09-13T07:29:25.428Z,3.97
2022-09-13T07:31:56.601Z,4.13
2022-09-13T07:34:26.869Z,5.10
2022-09-13T07:36:55.438Z,4.65
2022-09-13T07:39:24.244Z,3.78
2022-09-13T07:41:53.738Z,3.70
2022-09-13T07:44:23.753Z,5.10
2022-09-13T07:46:52.021Z,4.47
2022-09-13T07:49:20.874Z,4.30
2022-09-13T07:51:51.275Z,4.22
2022-09-13T07:54:20.540Z,3.97
2022-09-13T07:56:50.243Z,3.45
2022-09-13T07:59:19.473Z,4.45
2022-09-13T08:01:50.622Z,4.20
2022-09-13T08:04:21.194Z,4.95
2022-09-13T08:06:49.901Z,4.63
2022-09-13T08:09:18.590Z,4.97
2022-09-13T08:11:48.828Z,6.15
2022-09-13T08:14:18.818Z,5.28
2022-09-13T08:16:47.316Z,4.18
2022-09-13T08:19:18.905Z,5.40
2022-09-13T08:21:50.010Z,4.47
2022-09-13T08:24:21.194Z,4.95
2022-09-13T08:26:49.950Z,4.40
2022-09-13T08:29:18.713Z,4.20
2022-09-13T08:31:47.400Z,4.57
2022-09-13T08:34:18.084Z,4.38
2022-09-13T08:36:47.037Z,4.07
2022-09-13T08:39:15.414Z,4.50
2022-09-13T08:42:04.788Z,4.25
2022-09-13T08:44:36.094Z,4.65
2022-09-13T08:47:16.664Z,5.30
2022-09-13T08:49:49.348Z,4.07
2022-09-13T08:52:31.394Z,6.38
2022-09-13T08:55:02.754Z,4.18
2022-09-13T08:57:36.656Z,5.72
2022-09-13T09:00:20.118Z,5.72
2022-09-13T09:03:03.163Z,4.43
2022-09-13T09:05:37.349Z,5.50
2022-09-13T09:08:14.140Z,4.28
2022-09-13T09:10:47.445Z,4.93
2022-09-13T09:13:24.650Z,4.85
2022-09-13T09:16:29.893Z,5.53
2022-09-13T09:19:06.195Z,3.58
2022-09-13T09:21:35.975Z,7.13
2022-09-13T09:24:06.037Z,4.95
2022-09-13T09:26:34.374Z,5.65
2022-09-13T09:29:15.426Z,5.13
2022-09-13T09:31:54.566Z,9.98
2022-09-13T09:34:42.470Z,4.85
2022-09-13T09:37:18.318Z,5.55
2022-09-13T09:39:46.755Z,3.78
2022-09-13T09:42:18.357Z,5.07
2022-09-13T09:44:50.848Z,5.38
2022-09-13T09:47:21.899Z,4.75
2022-09-13T09:50:10.962Z,5.13
2022-09-13T09:52:45.788Z,5.53
2022-09-13T09:55:25.507Z,5.78
2022-09-13T09:57:59.464Z,5.93
2022-09-13T10:00:30.248Z,7.68
2022-09-13T10:03:01.147Z,5.05
2022-09-13T10:05:32.360Z,5.30
2022-09-13T10:08:05.475Z,7.00
2022-09-13T10:10:42.351Z,5.38
2022-09-13T10:13:18.213Z,4.97
2022-09-13T10:15:58.041Z,5.40
2022-09-13T10:18:43.600Z,5.40
2022-09-13T10:21:24.213Z,6.10
2022-09-13T10:24:13.967Z,5.20
2022-09-13T10:26:42.382Z,4.70
2022-09-13T10:29:16.042Z,5.95
2022-09-13T10:31:46.547Z,6.93
2022-09-13T10:34:20.576Z,5.32
2022-09-13T10:36:55.121Z,6.70
2022-09-13T10:39:26.515Z,6.53
2022-09-13T10:41:58.159Z,7.45
2022-09-13T10:44:38.051Z,7.18
2022-09-13T10:47:12.352Z,8.00
2022-09-13T10:52:26.880Z,4.80
2022-09-13T10:54:56.719Z,5.75
2022-09-13T10:57:35.363Z,5.25
2022-09-13T11:00:06.438Z,4.80
2022-09-13T11:02:55.046Z,4.63
2022-09-13T11:05:27.719Z,7.10
2022-09-13T11:08:12.774Z,7.32
2022-09-13T11:10:55.457Z,6.03
2022-09-13T11:13:32.888Z,4.78
2022-09-13T11:16:11.238Z,5.82
2022-09-13T11:18:51.334Z,5.22
2022-09-13T11:21:30.897Z,4.75
2022-09-13T11:24:28.696Z,4.35
2022-09-13T11:27:07.538Z,5.68
2022-09-13T11:30:04.861Z,4.18
2022-09-13T11:32:49.067Z,4.43
2022-09-13T11:35:34.922Z,4.95
2022-09-13T11:38:17.560Z,3.72
2022-09-13T11:40:56.467Z,4.18
2022-09-13T11:43:40.394Z,5.03
2022-09-13T11:46:16.549Z,5.00
2022-09-13T11:49:00.234Z,3.95
2022-09-13T11:51:40.650Z,4.43
2022-09-13T11:54:26.299Z,4.82
2022-09-13T11:56:59.642Z,3.90
2022-09-13T11:59:38.723Z,3.43
2022-09-13T12:02:19.106Z,4.15
2022-09-13T12:05:11.288Z,4.15
2022-09-13T12:07:47.157Z,6.68
2022-09-13T12:10:20.660Z,6.10
2022-09-13T12:12:51.938Z,5.95
2022-09-13T12:15:27.038Z,4.22
2022-09-13T12:17:59.620Z,3.15
2022-09-13T12:20:34.406Z,5.65
2022-09-13T12:23:06.041Z,4.90
2022-09-13T12:25:42.741Z,4.25
2022-09-13T12:28:20.370Z,3.78
2022-09-13T12:30:56.632Z,4.75
2022-09-13T12:33:25.016Z,4.85
2022-09-13T12:36:28.814Z,4.10
2022-09-13T12:39:24.676Z,5.22
2022-09-13T12:42:07.702Z,3.97
2022-09-13T12:45:06.697Z,4.95
2022-09-13T12:47:59.766Z,4.05
2022-09-13T12:50:56.179Z,5.55
2022-09-13T12:53:45.042Z,3.53
2022-09-13T12:56:41.817Z,3.47
2022-09-13T12:59:38.977Z,3.67
2022-09-13T13:02:33.217Z,7.20
2022-09-13T13:05:06.658Z,12.38
2022-09-13T13:07:38.114Z,4.82
2022-09-13T13:10:08.016Z,5.82
2022-09-13T13:12:39.019Z,6.45
2022-09-13T13:15:49.937Z,4.00
2022-09-13T13:18:24.248Z,4.03
2022-09-13T13:21:31.515Z,4.57
2022-09-13T13:24:37.868Z,3.70
2022-09-13T13:27:35.848Z,5.07
2022-09-13T13:30:41.456Z,3.60
2022-09-13T13:33:28.790Z,3.72
2022-09-13T13:35:57.220Z,4.63
2022-09-13T13:38:41.626Z,4.47
2022-09-13T13:44:58.133Z,5.75
2022-09-13T13:48:07.047Z,5.70
2022-09-13T13:50:37.778Z,5.10
2022-09-13T13:53:34.279Z,4.00
2022-09-13T13:56:19.887Z,3.63
2022-09-13T13:58:51.774Z,3.88
2022-09-13T14:01:27.110Z,3.47
2022-09-13T14:04:37.301Z,4.70
2022-09-13T14:07:19.880Z,4.15
2022-09-13T14:09:55.474Z,4.20
2022-09-13T14:12:38.128Z,3.03
2022-09-13T14:15:25.472Z,3.75
2022-09-13T14:18:13.919Z,4.35
2022-09-13T14:21:00.603Z,4.07
2022-09-13T14:23:29.300Z,4.43
2022-09-13T14:25:59.412Z,4.78
2022-09-13T14:28:29.349Z,4.20
2022-09-13T14:30:59.178Z,5.28
2022-09-13T14:33:35.097Z,5.32
2022-09-13T14:36:06.977Z,3.67
2022-09-13T14:38:37.036Z,4.20
2022-09-13T14:41:16.123Z,3.92
2022-09-13T14:43:45.908Z,4.57
2022-09-13T14:46:23.411Z,4.07
2022-09-13T14:48:57.712Z,5.18
2022-09-13T14:51:29.680Z,3.80
2022-09-13T14:54:02.965Z,4.03
2022-09-13T14:56:37.831Z,4.90
2022-09-13T14:59:13.277Z,4.32
2022-09-13T15:01:41.554Z,5.18
2022-09-13T15:04:11.617Z,5.03
2022-09-13T15:06:42.271Z,5.07
2022-09-13T15:09:27.438Z,5.95
2022-09-13T15:11:58.736Z,3.97
2022-09-13T15:14:29.111Z,4.15
2022-09-13T15:17:01.785Z,3.70
2022-09-13T15:19:37.367Z,5.40
2022-09-13T15:22:22.211Z,3.97
2022-09-13T15:24:53.434Z,3.97
2022-09-13T15:27:26.175Z,3.60
2022-09-13T15:29:56.876Z,3.45
2022-09-13T15:32:32.064Z,3.38
2022-09-13T15:35:03.515Z,5.30
2022-09-13T15:37:35.811Z,3.15
2022-09-13T15:40:15.216Z,4.25
2022-09-13T15:42:47.271Z,4.43
2022-09-13T15:45:15.724Z,3.60
2022-09-13T15:47:46.718Z,4.28
2022-09-13T15:50:26.794Z,3.83
2022-09-13T15:52:55.789Z,5.00
2022-09-13T15:55:25.022Z,4.38
2022-09-13T15:57:53.669Z,4.28
2022-09-13T16:00:25.805Z,4.07
2022-09-13T16:02:54.249Z,3.47
2022-09-13T16:05:23.958Z,6.20
2022-09-13T16:07:54.000Z,3.45
2022-09-13T16:10:24.012Z,3.85
2022-09-13T16:12:52.512Z,3.53
2022-09-13T16:15:20.806Z,4.53
2022-09-13T16:17:49.188Z,4.03
2022-09-13T16:20:17.668Z,3.22
2022-09-13T16:22:47.295Z,4.18
2022-09-13T16:25:16.587Z,3.50
2022-09-13T16:27:45.654Z,3.60
2022-09-13T16:30:15.158Z,3.90
2022-09-13T16:32:43.928Z,4.22
2022-09-13T16:35:13.673Z,3.90
2022-09-13T16:37:42.044Z,3.90
2022-09-13T16:40:13.055Z,3.67
2022-09-13T16:42:41.517Z,3.90
2022-09-13T16:45:11.826Z,5.15
2022-09-13T16:47:41.161Z,6.22
2022-09-13T16:50:10.746Z,4.80
2022-09-13T16:52:39.341Z,5.28
2022-09-13T16:55:09.181Z,5.60
2022-09-13T16:57:39.037Z,4.55
2022-09-13T17:00:11.102Z,4.40
2022-09-13T17:02:39.539Z,4.97
2022-09-13T17:05:08.479Z,4.63
2022-09-13T17:07:37.429Z,5.15
2022-09-13T17:10:07.020Z,4.22
2022-09-13T17:12:35.792Z,5.13
2022-09-13T17:15:06.423Z,4.18
2022-09-13T17:17:36.274Z,4.30
2022-09-13T17:20:07.946Z,4.00
2022-09-13T17:22:36.626Z,4.45
2022-09-13T17:25:07.577Z,3.92
2022-09-13T17:27:36.088Z,3.55
2022-09-13T17:30:07.137Z,4.35
2022-09-13T17:32:35.428Z,4.70
2022-09-13T17:35:03.690Z,4.93
2022-09-13T17:37:32.125Z,3.60
2022-09-13T17:40:00.473Z,5.38
2022-09-13T17:42:28.846Z,3.90
2022-09-13T17:44:57.165Z,5.20
2022-09-13T17:47:27.132Z,3.80
2022-09-13T17:49:56.005Z,4.30
2022-09-13T17:52:24.289Z,4.55
2022-09-13T17:54:52.611Z,4.13
2022-09-13T17:57:21.719Z,6.20
2022-09-13T17:59:50.057Z,5.00
2022-09-13T18:02:18.521Z,4.95
2022-09-13T18:04:48.245Z,3.90
2022-09-13T18:07:16.552Z,4.65
2022-09-13T18:09:45.404Z,4.32
2022-09-13T18:12:13.780Z,5.38
2022-09-13T18:14:42.009Z,5.13
2022-09-13T18:17:13.092Z,4.57
2022-09-13T18:19:46.428Z,4.88
2022-09-13T18:22:16.727Z,4.82
2022-09-13T18:24:45.178Z,5.07
2022-09-13T18:27:13.497Z,4.40
2022-09-13T18:29:42.558Z,4.65
2022-09-13T18:32:10.851Z,4.85
2022-09-13T18:34:42.014Z,4.55
2022-09-13T18:37:10.308Z,4.28
2022-09-13T18:39:39.944Z,4.40
2022-09-13T18:42:08.394Z,4.38
2022-09-13T18:44:36.641Z,4.25
2022-09-13T18:47:05.256Z,5.00
2022-09-13T18:49:33.576Z,5.65
2022-09-13T18:52:01.922Z,4.50
2022-09-13T18:54:32.323Z,4.45
2022-09-13T18:57:02.783Z,4.80
2022-09-13T18:59:32.173Z,6.22
2022-09-13T19:02:00.583Z,5.78
2022-09-13T19:04:28.938Z,7.32
2022-09-13T19:06:57.204Z,6.22
2022-09-13T19:09:25.773Z,3.78
2022-09-13T19:11:55.108Z,3.85
2022-09-13T19:14:26.987Z,4.50
2022-09-13T19:16:57.318Z,4.82
2022-09-13T19:19:25.920Z,4.75
2022-09-13T19:21:54.296Z,5.88
2022-09-13T19:24:22.912Z,5.57
2022-09-13T19:26:52.998Z,5.05
2022-09-13T19:29:22.792Z,4.15
2022-09-13T19:31:53.361Z,5.70
2022-09-13T19:34:23.472Z,5.05
2022-09-13T19:36:57.426Z,4.20
2022-09-13T19:39:29.516Z,5.03
2022-09-13T19:41:59.585Z,4.60
2022-09-13T19:44:28.240Z,5.38
2022-09-13T19:49:49.701Z,4.90
2022-09-13T19:52:18.115Z,4.95
2022-09-13T19:54:46.396Z,5.45
2022-09-13T19:57:14.757Z,6.03
2022-09-13T19:59:43.088Z,4.85
2022-09-13T20:02:13.218Z,5.05
2022-09-13T20:04:41.965Z,5.90
2022-09-13T20:07:12.196Z,6.53
2022-09-13T20:09:42.180Z,6.05
2022-09-13T20:12:11.488Z,5.65
2022-09-13T20:14:39.775Z,5.43
2022-09-13T20:17:08.123Z,6.55
2022-09-13T20:19:43.794Z,7.40
2022-09-13T20:22:15.206Z,7.20
2022-09-13T20:24:43.496Z,8.35
2022-09-13T20:27:11.798Z,7.55
2022-09-13T20:29:40.357Z,8.15
2022-09-13T20:32:09.424Z,6.53
2022-09-13T20:34:39.259Z,8.05
2022-09-13T20:37:07.528Z,8.05
2022-09-13T20:39:36.126Z,7.93
2022-09-13T20:42:04.605Z,9.20
2022-09-13T20:44:32.686Z,7.05
2022-09-13T20:47:00.851Z,8.52
2022-09-13T20:49:30.175Z,8.80
2022-09-13T20:51:59.910Z,7.03
2022-09-13T20:54:28.185Z,7.68
2022-09-13T20:56:56.471Z,7.55
2022-09-13T20:59:24.714Z,6.40
2022-09-13T21:01:53.408Z,6.35
2022-09-13T21:04:22.042Z,4.97
2022-09-13T21:07:12.293Z,6.47
2022-09-13T21:09:44.270Z,6.72
2022-09-13T21:12:15.418Z,5.70
2022-09-13T21:14:43.738Z,6.65
2022-09-13T21:17:12.123Z,5.25
2022-09-13T21:19:42.929Z,6.32
2022-09-13T21:22:11.330Z,5.68
2022-09-13T21:24:39.649Z,5.97
2022-09-13T21:27:09.270Z,6.25
2022-09-13T21:29:37.509Z,5.38
2022-09-13T21:32:05.864Z,4.47
2022-09-13T21:34:34.190Z,4.13
2022-09-13T21:37:02.734Z,5.15
2022-09-13T21:39:30.990Z,4.43
2022-09-13T21:42:01.089Z,4.40
2022-09-13T21:44:32.969Z,3.83
2022-09-13T21:47:01.232Z,4.75
2022-09-13T21:49:29.571Z,4.72
2022-09-13T21:51:57.843Z,3.67
2022-09-13T21:54:26.118Z,5.60
2022-09-13T21:56:55.273Z,4.80
2022-09-13T21:59:26.876Z,4.10
2022-09-13T22:01:56.533Z,3.28
2022-09-13T22:04:27.132Z,3.58
2022-09-13T22:07:00.318Z,3.83
2022-09-13T22:09:28.627Z,2.90
2022-09-13T22:11:57.467Z,3.20
2022-09-13T22:14:26.537Z,3.63
2022-09-13T22:16:56.671Z,3.08
2022-09-13T22:19:27.246Z,3.70
2022-09-13T22:21:58.923Z,2.80
2022-09-13T22:24:29.813Z,3.20
2022-09-13T22:27:00.745Z,3.78
2022-09-13T22:29:29.771Z,3.40
2022-09-13T22:32:00.725Z,3.15
2022-09-13T22:34:30.887Z,3.47
2022-09-13T22:37:01.856Z,3.95
2022-09-13T22:39:30.114Z,3.35
2022-09-13T22:42:00.333Z,3.33
2022-09-13T22:44:28.666Z,3.10
2022-09-13T22:47:00.223Z,3.33
2022-09-13T22:49:33.498Z,2.80
2022-09-13T22:52:01.746Z,2.90
2022-09-13T22:54:30.105Z,3.30
2022-09-13T22:56:58.363Z,2.55
2022-09-13T22:59:29.325Z,3.03
2022-09-13T23:01:57.606Z,3.17
2022-09-13T23:04:25.871Z,2.58
2022-09-13T23:06:55.540Z,2.53
2022-09-13T23:09:23.826Z,4.95
2022-09-13T23:11:52.088Z,3.30
2022-09-13T23:14:23.532Z,3.67
2022-09-13T23:16:52.160Z,2.55
2022-09-13T23:19:23.014Z,2.55
2022-09-13T23:21:53.598Z,3.38
2022-09-13T23:24:24.189Z,2.70
2022-09-13T23:26:55.753Z,2.72
2022-09-13T23:29:24.273Z,2.55
2022-09-13T23:31:52.882Z,3.25
2022-09-13T23:34:21.192Z,2.70
2022-09-13T23:36:49.658Z,3.55
2022-09-13T23:39:19.561Z,3.60
2022-09-13T23:41:50.956Z,3.33
2022-09-13T23:44:19.440Z,3.55
2022-09-13T23:46:47.710Z,2.90
2022-09-13T23:49:16.628Z,3.03
2022-09-13T23:51:45.094Z,3.17
2022-09-13T23:54:13.955Z,3.38
2022-09-13T23:56:42.442Z,2.95
2022-09-13T23:59:13.524Z,3.50
